createdAt,value
2017-10-26T00:01:16.937Z,97.70
2017-10-26T00:03:43.368Z,97.40
2017-10-26T00:06:09.864Z,97.20
2017-10-26T00:08:36.325Z,97.20
2017-10-26T00:11:02.825Z,96.90
2017-10-26T00:13:29.227Z,96.90
2017-10-26T00:15:56.445Z,97.20
2017-10-26T00:18:22.901Z,97.50
2017-10-26T00:20:49.332Z,97.40
2017-10-26T00:23:15.804Z,97.10
2017-10-26T00:25:43.142Z,97.30
2017-10-26T00:28:09.581Z,97.20
2017-10-26T00:30:36.833Z,97.10
2017-10-26T00:33:03.294Z,97.10
2017-10-26T00:35:30.545Z,95.60
2017-10-26T00:37:57.028Z,95.60
2017-10-26T00:40:24.277Z,96.40
2017-10-26T00:42:50.722Z,96.30
2017-10-26T00:45:17.212Z,96.30
2017-10-26T00:47:43.678Z,96.60
2017-10-26T00:50:10.123Z,96.90
2017-10-26T00:52:37.390Z,95.70
2017-10-26T00:55:03.827Z,95.70
2017-10-26T00:57:30.330Z,96.10
2017-10-26T00:59:56.767Z,95.90
2017-10-26T01:02:23.246Z,95.80
2017-10-26T01:04:49.723Z,96.40
2017-10-26T01:07:16.191Z,96.30
2017-10-26T01:09:42.649Z,95.90
2017-10-26T01:12:09.138Z,96.30
2017-10-26T01:14:36.375Z,96.60
2017-10-26T01:17:02.885Z,96.60
2017-10-26T01:19:29.390Z,96.50
2017-10-26T01:21:55.930Z,96.40
2017-10-26T01:24:22.431Z,96.00
2017-10-26T01:26:49.635Z,96.50
2017-10-26T01:29:16.142Z,96.30
2017-10-26T01:31:42.638Z,95.80
2017-10-26T01:34:09.161Z,95.50
2017-10-26T01:36:35.647Z,96.00
2017-10-26T01:39:02.193Z,97.10
2017-10-26T01:41:28.669Z,97.70
2017-10-26T01:43:55.181Z,98.00
2017-10-26T01:46:21.695Z,97.80
2017-10-26T01:48:48.192Z,97.80
2017-10-26T01:51:15.422Z,98.70
2017-10-26T01:53:41.912Z,98.70
2017-10-26T01:56:08.513Z,98.80
2017-10-26T01:58:34.997Z,99.00
2017-10-26T02:01:01.466Z,98.90
2017-10-26T02:03:27.975Z,98.50
2017-10-26T02:05:54.456Z,98.60
2017-10-26T02:08:21.698Z,97.90
2017-10-26T02:10:48.198Z,97.90
2017-10-26T02:13:14.718Z,97.30
2017-10-26T02:15:41.226Z,96.60
2017-10-26T02:18:07.706Z,96.50
2017-10-26T02:20:34.193Z,95.90
2017-10-26T02:23:01.454Z,96.10
2017-10-26T02:25:28.017Z,96.00
2017-10-26T02:27:54.450Z,95.70
2017-10-26T02:30:32.937Z,95.40
2017-10-26T02:32:59.339Z,95.10
2017-10-26T02:35:26.578Z,95.30
2017-10-26T02:37:53.046Z,95.30
2017-10-26T02:40:20.297Z,95.80
2017-10-26T02:42:47.515Z,95.70
2017-10-26T02:45:13.999Z,95.70
2017-10-26T02:47:41.205Z,95.90
2017-10-26T02:50:08.444Z,96.80
2017-10-26T02:52:34.920Z,97.10
2017-10-26T02:55:01.334Z,96.90
2017-10-26T02:57:27.802Z,96.80
2017-10-26T02:59:54.349Z,97.00
2017-10-26T03:02:20.826Z,96.70
2017-10-26T03:04:47.375Z,96.90
2017-10-26T03:07:14.570Z,97.10
2017-10-26T03:09:41.030Z,97.10
2017-10-26T03:12:07.503Z,96.90
2017-10-26T03:14:34.699Z,96.50
2017-10-26T03:17:01.215Z,96.50
2017-10-26T03:19:27.697Z,97.00
2017-10-26T03:21:54.934Z,97.50
2017-10-26T03:24:21.466Z,97.50
2017-10-26T03:26:48.677Z,97.20
2017-10-26T03:29:15.141Z,97.30
2017-10-26T03:31:41.594Z,97.90
2017-10-26T03:34:08.026Z,98.30
2017-10-26T03:36:34.541Z,98.10
2017-10-26T03:39:01.017Z,97.70
2017-10-26T03:41:27.461Z,97.80
2017-10-26T03:43:53.943Z,97.40
2017-10-26T03:46:20.386Z,97.60
2017-10-26T03:48:46.807Z,97.10
2017-10-26T03:51:13.210Z,97.40
2017-10-26T03:53:39.656Z,97.40
2017-10-26T03:56:06.078Z,97.50
2017-10-26T03:58:32.559Z,98.10
2017-10-26T04:00:59.010Z,98.20
2017-10-26T04:03:26.243Z,98.00
2017-10-26T04:05:52.694Z,97.90
2017-10-26T04:08:19.117Z,97.90
2017-10-26T04:10:45.617Z,97.70
2017-10-26T04:13:12.072Z,97.90
2017-10-26T04:15:38.509Z,98.10
2017-10-26T04:18:04.956Z,98.70
2017-10-26T04:20:31.411Z,99.50
2017-10-26T04:22:57.919Z,99.50
2017-10-26T04:25:24.417Z,98.90
2017-10-26T04:27:50.882Z,98.40
2017-10-26T04:30:17.380Z,98.10
2017-10-26T04:32:43.878Z,97.80
2017-10-26T04:35:10.386Z,97.90
2017-10-26T04:37:36.842Z,97.90
2017-10-26T04:40:03.395Z,98.00
2017-10-26T04:42:29.889Z,98.70
2017-10-26T04:44:56.348Z,98.50
2017-10-26T04:47:22.801Z,98.00
2017-10-26T04:49:49.956Z,97.90
2017-10-26T04:52:17.182Z,98.10
2017-10-26T04:54:43.615Z,98.10
2017-10-26T04:57:10.210Z,98.10
2017-10-26T04:59:36.618Z,98.10
2017-10-26T05:02:03.066Z,98.10
2017-10-26T05:04:29.526Z,97.70
2017-10-26T05:06:55.974Z,97.90
2017-10-26T05:09:22.438Z,98.10
2017-10-26T05:11:48.882Z,97.80
2017-10-26T05:14:15.375Z,97.60
2017-10-26T05:16:41.901Z,97.70
2017-10-26T05:19:08.353Z,97.60
2017-10-26T05:21:35.606Z,97.80
2017-10-26T05:24:02.036Z,97.80
2017-10-26T05:26:28.529Z,98.00
2017-10-26T05:28:54.974Z,98.50
2017-10-26T05:31:22.238Z,99.90
2017-10-26T05:33:49.481Z,99.90
2017-10-26T05:36:15.980Z,99.90
2017-10-26T05:38:43.260Z,99.90
2017-10-26T05:41:09.746Z,99.90
2017-10-26T05:43:36.210Z,99.90
2017-10-26T05:46:02.746Z,99.90
2017-10-26T05:48:29.271Z,99.90
2017-10-26T05:50:55.729Z,99.90
2017-10-26T05:53:22.200Z,99.90
2017-10-26T05:55:49.401Z,99.90
2017-10-26T05:58:15.856Z,99.90
2017-10-26T06:00:42.447Z,99.90
2017-10-26T06:03:08.939Z,99.70
2017-10-26T06:05:35.364Z,99.70
2017-10-26T06:08:01.805Z,99.70
2017-10-26T06:10:28.997Z,99.40
2017-10-26T06:12:55.479Z,99.40
2017-10-26T06:15:21.947Z,99.40
2017-10-26T06:17:48.384Z,99.30
2017-10-26T06:20:15.534Z,99.40
2017-10-26T06:22:42.017Z,99.30
2017-10-26T06:25:08.449Z,99.10
2017-10-26T06:27:34.895Z,99.00
2017-10-26T06:30:01.310Z,99.10
2017-10-26T06:32:27.780Z,98.80
2017-10-26T06:34:54.220Z,98.60
2017-10-26T06:37:20.678Z,98.40
2017-10-26T06:39:47.141Z,97.90
2017-10-26T06:42:13.599Z,97.90
2017-10-26T06:44:40.037Z,98.00
2017-10-26T06:47:06.532Z,97.80
2017-10-26T06:49:33.030Z,97.60
2017-10-26T06:52:00.222Z,98.10
2017-10-26T06:54:26.638Z,98.10
2017-10-26T06:56:53.123Z,98.20
2017-10-26T06:59:19.565Z,97.90
2017-10-26T07:01:45.971Z,97.60
2017-10-26T07:04:12.487Z,97.60
2017-10-26T07:06:38.982Z,97.30
2017-10-26T07:09:05.427Z,96.70
2017-10-26T07:11:31.893Z,96.30
2017-10-26T07:13:58.328Z,95.40
2017-10-26T07:16:24.841Z,94.80
2017-10-26T07:18:51.382Z,94.10
2017-10-26T07:21:17.865Z,93.50
2017-10-26T07:23:44.354Z,92.50
2017-10-26T07:26:10.878Z,92.40
2017-10-26T07:28:37.332Z,92.40
2017-10-26T07:31:03.843Z,92.20
2017-10-26T07:33:30.342Z,92.10
2017-10-26T07:35:56.937Z,91.60
2017-10-26T07:38:23.370Z,91.80
2017-10-26T07:40:49.862Z,92.40
2017-10-26T07:43:16.375Z,91.40
2017-10-26T07:45:42.834Z,91.30
2017-10-26T07:48:09.314Z,90.60
2017-10-26T07:50:35.781Z,87.10
2017-10-26T07:53:02.235Z,90.20
2017-10-26T07:55:28.731Z,84.70
2017-10-26T07:57:55.210Z,86.80
2017-10-26T08:00:21.782Z,81.90
2017-10-26T08:02:48.260Z,82.90
2017-10-26T08:05:14.769Z,82.10
2017-10-26T08:07:41.347Z,80.60
2017-10-26T08:10:07.858Z,78.00
2017-10-26T08:12:34.326Z,75.50
2017-10-26T08:15:00.814Z,74.50
2017-10-26T08:17:27.264Z,69.50
2017-10-26T08:19:54.465Z,72.10
2017-10-26T08:22:20.957Z,72.10
2017-10-26T08:24:47.447Z,69.90
2017-10-26T08:27:13.959Z,69.00
2017-10-26T08:29:40.374Z,71.00
2017-10-26T08:32:06.814Z,69.50
2017-10-26T08:34:33.315Z,69.10
2017-10-26T08:37:00.502Z,67.90
2017-10-26T08:39:26.981Z,68.00
2017-10-26T08:41:53.421Z,65.00
2017-10-26T08:44:19.890Z,63.00
2017-10-26T08:46:46.385Z,57.30
2017-10-26T08:49:12.825Z,57.50
2017-10-26T08:51:39.358Z,54.70
2017-10-26T08:54:05.862Z,53.40
2017-10-26T08:56:32.381Z,49.50
2017-10-26T08:58:58.838Z,49.90
2017-10-26T09:01:25.329Z,48.00
2017-10-26T09:03:51.843Z,48.10
2017-10-26T09:06:18.310Z,45.10
2017-10-26T09:08:44.843Z,44.80
2017-10-26T09:11:11.331Z,46.30
2017-10-26T09:13:38.661Z,44.50
2017-10-26T09:16:05.182Z,44.50
2017-10-26T09:18:31.683Z,42.10
2017-10-26T09:20:58.272Z,43.30
2017-10-26T09:23:25.574Z,42.30
2017-10-26T09:25:52.136Z,41.40
2017-10-26T09:28:18.642Z,41.20
2017-10-26T09:30:45.174Z,42.20
2017-10-26T09:33:17.696Z,40.60
2017-10-26T09:35:44.264Z,39.90
2017-10-26T09:38:10.779Z,41.30
2017-10-26T09:40:38.118Z,42.40
2017-10-26T09:43:04.663Z,41.80
2017-10-26T09:45:31.923Z,42.00
2017-10-26T09:47:59.155Z,42.20
2017-10-26T09:50:26.469Z,41.00
2017-10-26T09:52:52.963Z,41.00
2017-10-26T09:55:19.516Z,40.50
2017-10-26T09:57:45.999Z,40.00
2017-10-26T10:00:12.485Z,40.10
2017-10-26T10:02:39.036Z,39.40
2017-10-26T10:05:05.551Z,39.30
2017-10-26T10:07:32.776Z,38.80
2017-10-26T10:09:59.322Z,38.80
2017-10-26T10:12:25.810Z,38.90
2017-10-26T10:14:52.370Z,39.60
2017-10-26T10:17:18.878Z,39.30
2017-10-26T10:19:45.350Z,39.20
2017-10-26T10:22:11.909Z,40.00
2017-10-26T10:24:38.442Z,39.30
2017-10-26T10:27:04.973Z,38.60
2017-10-26T10:29:31.525Z,38.80
2017-10-26T10:31:58.009Z,38.70
2017-10-26T10:34:24.526Z,38.60
2017-10-26T10:36:51.026Z,38.30
2017-10-26T10:39:17.581Z,38.30
2017-10-26T10:41:44.075Z,38.30
2017-10-26T10:44:11.380Z,37.60
2017-10-26T10:46:37.898Z,37.50
2017-10-26T10:49:04.447Z,39.20
2017-10-26T10:51:30.912Z,39.10
2017-10-26T10:53:57.402Z,40.30
2017-10-26T10:56:23.919Z,41.80
2017-10-26T10:58:50.470Z,42.50
2017-10-26T11:01:16.994Z,43.30
2017-10-26T11:03:44.221Z,45.70
2017-10-26T11:06:11.518Z,45.70
2017-10-26T11:08:38.036Z,45.60
2017-10-26T11:11:04.518Z,46.90
2017-10-26T11:13:31.065Z,46.30
2017-10-26T11:15:57.618Z,46.80
2017-10-26T11:18:24.829Z,46.80
2017-10-26T11:20:51.349Z,46.70
2017-10-26T11:23:17.871Z,48.10
2017-10-26T11:25:44.394Z,48.70
2017-10-26T11:28:10.902Z,48.60
2017-10-26T11:30:38.183Z,49.20
2017-10-26T11:33:04.766Z,49.10
2017-10-26T11:35:31.239Z,50.20
2017-10-26T11:37:58.514Z,51.70
2017-10-26T11:40:25.016Z,51.60
2017-10-26T11:42:51.507Z,53.20
2017-10-26T11:45:18.034Z,53.50
2017-10-26T11:47:44.573Z,54.00
2017-10-26T11:50:11.068Z,53.80
2017-10-26T11:52:37.614Z,55.20
2017-10-26T11:55:04.195Z,55.60
2017-10-26T11:57:30.725Z,55.70
2017-10-26T11:59:57.275Z,57.20
2017-10-26T12:02:23.848Z,56.70
2017-10-26T12:04:50.366Z,56.90
2017-10-26T12:07:17.626Z,57.50
2017-10-26T12:09:44.850Z,57.60
2017-10-26T12:12:12.090Z,57.60
2017-10-26T12:14:38.602Z,57.60
2017-10-26T12:17:05.108Z,58.00
2017-10-26T12:19:31.642Z,57.50
2017-10-26T12:21:58.118Z,56.90
2017-10-26T12:24:24.628Z,57.70
2017-10-26T12:26:51.155Z,59.40
2017-10-26T12:29:17.665Z,58.50
2017-10-26T12:31:44.883Z,58.50
2017-10-26T12:34:11.390Z,58.50
2017-10-26T12:36:37.926Z,58.70
2017-10-26T12:39:04.414Z,58.40
2017-10-26T12:41:30.874Z,59.10
2017-10-26T12:43:57.454Z,59.80
2017-10-26T12:46:23.967Z,59.40
2017-10-26T12:48:50.559Z,59.20
2017-10-26T12:51:17.821Z,59.20
2017-10-26T12:53:44.327Z,59.20
2017-10-26T12:56:10.835Z,60.00
2017-10-26T12:58:37.365Z,59.60
2017-10-26T13:01:03.823Z,59.80
2017-10-26T13:03:30.350Z,59.90
2017-10-26T13:05:56.830Z,59.80
2017-10-26T13:08:23.368Z,60.00
2017-10-26T13:10:50.006Z,60.60
2017-10-26T13:13:16.505Z,60.50
2017-10-26T13:15:43.027Z,61.00
2017-10-26T13:18:09.555Z,61.20
2017-10-26T13:20:36.157Z,61.40
2017-10-26T13:23:02.656Z,61.10
2017-10-26T13:25:29.935Z,61.70
2017-10-26T13:27:56.393Z,61.70
2017-10-26T13:30:22.965Z,62.40
2017-10-26T13:32:49.431Z,62.50
2017-10-26T13:35:17.075Z,62.80
2017-10-26T13:37:43.587Z,62.40
2017-10-26T13:40:10.851Z,63.70
2017-10-26T13:42:37.332Z,62.80
2017-10-26T13:45:03.824Z,63.50
2017-10-26T13:47:30.271Z,63.90
2017-10-26T13:49:56.747Z,63.50
2017-10-26T13:52:23.209Z,63.80
2017-10-26T13:54:49.643Z,63.70
2017-10-26T13:57:16.131Z,64.10
2017-10-26T13:59:42.643Z,64.20
2017-10-26T14:02:09.106Z,63.60
2017-10-26T14:04:35.606Z,63.60
2017-10-26T14:07:02.057Z,64.00
2017-10-26T14:09:28.529Z,64.10
2017-10-26T14:11:55.023Z,64.30
2017-10-26T14:14:21.515Z,64.80
2017-10-26T14:16:48.042Z,64.80
2017-10-26T14:19:14.555Z,65.00
2017-10-26T14:21:40.969Z,64.80
2017-10-26T14:24:07.426Z,65.10
2017-10-26T14:26:33.889Z,65.90
2017-10-26T14:29:00.350Z,65.70
2017-10-26T14:31:26.919Z,65.60
2017-10-26T14:33:53.427Z,66.20
2017-10-26T14:36:19.944Z,66.40
2017-10-26T14:38:46.461Z,66.40
2017-10-26T14:41:12.906Z,66.90
2017-10-26T14:43:39.527Z,67.10
2017-10-26T14:46:06.881Z,67.00
2017-10-26T14:48:33.504Z,67.00
2017-10-26T14:51:00.124Z,67.10
2017-10-26T14:53:26.765Z,67.30
2017-10-26T14:55:53.298Z,67.10
2017-10-26T14:58:19.814Z,67.40
2017-10-26T15:00:46.334Z,68.10
2017-10-26T15:03:12.817Z,68.30
2017-10-26T15:05:39.261Z,68.00
2017-10-26T15:08:05.756Z,68.30
2017-10-26T15:10:32.226Z,68.40
2017-10-26T15:12:58.681Z,68.70
2017-10-26T15:15:25.870Z,68.60
2017-10-26T15:17:52.402Z,68.50
2017-10-26T15:20:18.871Z,68.90
2017-10-26T15:22:45.318Z,69.20
2017-10-26T15:25:11.774Z,69.30
2017-10-26T15:27:38.992Z,69.30
2017-10-26T15:30:05.417Z,69.30
2017-10-26T15:32:31.893Z,69.70
2017-10-26T15:34:59.161Z,70.40
2017-10-26T15:37:25.667Z,70.40
2017-10-26T15:39:52.115Z,70.80
2017-10-26T15:42:18.633Z,71.20
2017-10-26T15:44:45.112Z,71.80
2017-10-26T15:47:11.594Z,71.70
2017-10-26T15:49:38.022Z,71.80
2017-10-26T15:52:04.482Z,71.70
2017-10-26T15:54:31.032Z,72.20
2017-10-26T15:56:57.462Z,72.40
2017-10-26T15:59:23.950Z,72.70
2017-10-26T16:01:50.505Z,73.20
2017-10-26T16:04:17.217Z,73.70
2017-10-26T16:06:43.739Z,74.50
2017-10-26T16:09:10.219Z,74.00
2017-10-26T16:11:36.718Z,74.30
2017-10-26T16:14:03.286Z,74.50
2017-10-26T16:16:30.469Z,75.30
2017-10-26T16:18:56.953Z,75.30
2017-10-26T16:21:23.421Z,75.70
2017-10-26T16:23:50.706Z,76.00
2017-10-26T16:26:17.195Z,76.00
2017-10-26T16:28:44.425Z,76.80
2017-10-26T16:31:10.884Z,76.80
2017-10-26T16:33:38.167Z,77.30
2017-10-26T16:36:04.698Z,77.20
2017-10-26T16:38:31.188Z,77.40
2017-10-26T16:40:57.658Z,78.00
2017-10-26T16:43:24.188Z,78.00
2017-10-26T16:45:50.665Z,78.30
2017-10-26T16:48:17.103Z,79.30
2017-10-26T16:50:43.594Z,80.30
2017-10-26T16:53:10.065Z,81.40
2017-10-26T16:55:36.593Z,82.00
2017-10-26T16:58:03.170Z,83.00
2017-10-26T17:00:29.726Z,83.30
2017-10-26T17:02:56.233Z,83.40
2017-10-26T17:05:22.673Z,83.50
2017-10-26T17:07:49.921Z,84.60
2017-10-26T17:10:16.333Z,84.60
2017-10-26T17:12:42.841Z,85.70
2017-10-26T17:15:09.337Z,86.30
2017-10-26T17:17:36.567Z,85.80
2017-10-26T17:20:03.018Z,85.80
2017-10-26T17:22:30.213Z,86.40
2017-10-26T17:24:56.764Z,86.40
2017-10-26T17:27:23.228Z,86.30
2017-10-26T17:29:50.427Z,86.70
2017-10-26T17:32:16.866Z,86.10
2017-10-26T17:34:43.352Z,86.00
2017-10-26T17:37:09.834Z,86.10
2017-10-26T17:39:36.292Z,86.20
2017-10-26T17:42:02.828Z,86.10
2017-10-26T17:44:29.291Z,86.30
2017-10-26T17:46:55.829Z,86.40
2017-10-26T17:49:23.009Z,86.90
2017-10-26T17:51:49.481Z,86.90
2017-10-26T17:54:16.728Z,87.60
2017-10-26T17:56:43.259Z,87.60
2017-10-26T17:59:09.676Z,88.30
2017-10-26T18:01:36.898Z,89.60
2017-10-26T18:04:03.421Z,89.50
2017-10-26T18:06:29.937Z,89.10
2017-10-26T18:08:57.115Z,89.30
2017-10-26T18:11:23.610Z,89.20
2017-10-26T18:13:50.109Z,88.60
2017-10-26T18:16:16.569Z,88.50
2017-10-26T18:18:43.822Z,89.00
2017-10-26T18:21:11.060Z,89.50
2017-10-26T18:23:38.289Z,90.00
2017-10-26T18:26:04.745Z,90.00
2017-10-26T18:28:32.705Z,90.30
2017-10-26T18:30:59.187Z,90.40
2017-10-26T18:33:25.936Z,90.20
2017-10-26T18:35:53.188Z,88.80
2017-10-26T18:38:19.719Z,88.70
2017-10-26T18:40:46.918Z,88.40
2017-10-26T18:43:14.172Z,88.20
2017-10-26T18:45:40.655Z,88.20
2017-10-26T18:48:07.096Z,88.20
2017-10-26T18:50:33.585Z,87.80
2017-10-26T18:53:00.048Z,87.70
2017-10-26T18:55:26.548Z,87.40
2017-10-26T18:57:53.001Z,88.20
2017-10-26T19:00:20.322Z,90.00
2017-10-26T19:02:46.809Z,90.00
2017-10-26T19:05:13.301Z,90.00
2017-10-26T19:07:40.616Z,90.10
2017-10-26T19:10:07.211Z,90.10
2017-10-26T19:12:34.425Z,90.30
2017-10-26T19:15:00.993Z,90.20
2017-10-26T19:17:27.570Z,90.60
2017-10-26T19:19:54.052Z,90.80
2017-10-26T19:22:20.531Z,91.00
2017-10-26T19:24:47.028Z,91.00
2017-10-26T19:27:14.270Z,90.80
2017-10-26T19:29:41.516Z,90.50
2017-10-26T19:32:08.727Z,90.50
2017-10-26T19:34:35.195Z,90.60
2017-10-26T19:37:01.758Z,90.80
2017-10-26T19:39:28.964Z,90.40
2017-10-26T19:41:55.452Z,90.40
2017-10-26T19:44:23.487Z,90.50
2017-10-26T19:46:49.975Z,90.40
2017-10-26T19:49:16.427Z,90.30
2017-10-26T19:51:42.967Z,90.30
2017-10-26T19:54:09.405Z,90.60
2017-10-26T19:56:35.892Z,90.80
2017-10-26T19:59:03.062Z,91.50
2017-10-26T20:01:30.359Z,91.20
2017-10-26T20:03:57.678Z,91.20
2017-10-26T20:06:24.193Z,91.20
2017-10-26T20:08:51.362Z,91.10
2017-10-26T20:11:17.841Z,91.10
2017-10-26T20:13:44.343Z,91.20
2017-10-26T20:16:10.864Z,90.70
2017-10-26T20:18:37.289Z,90.80
2017-10-26T20:21:03.767Z,91.50
2017-10-26T20:23:30.980Z,91.30
2017-10-26T20:25:57.469Z,91.30
2017-10-26T20:28:23.900Z,91.50
2017-10-26T20:30:50.364Z,91.40
2017-10-26T20:33:16.853Z,91.60
2017-10-26T20:35:44.052Z,91.60
2017-10-26T20:38:10.529Z,91.50
2017-10-26T20:40:36.986Z,91.60
2017-10-26T20:43:03.502Z,91.60
2017-10-26T20:45:29.962Z,91.80
2017-10-26T20:47:56.445Z,92.00
2017-10-26T20:50:29.033Z,92.20
2017-10-26T20:53:01.566Z,92.20
2017-10-26T20:55:34.663Z,92.10
2017-10-26T20:58:07.275Z,92.10
2017-10-26T21:00:39.954Z,92.10
2017-10-26T21:03:13.411Z,91.80
2017-10-26T21:05:46.007Z,91.80
2017-10-26T21:08:12.552Z,91.70
2017-10-26T21:10:45.078Z,91.70
2017-10-26T21:13:17.646Z,91.60
2017-10-26T21:15:44.859Z,91.20
2017-10-26T21:18:11.338Z,91.20
2017-10-26T21:20:37.751Z,91.40
2017-10-26T21:23:04.187Z,91.20
2017-10-26T21:25:30.634Z,90.90
2017-10-26T21:27:57.113Z,90.80
2017-10-26T21:30:23.582Z,90.70
2017-10-26T21:32:50.002Z,90.60
2017-10-26T21:35:16.475Z,90.40
2017-10-26T21:37:43.678Z,90.30
2017-10-26T21:40:10.148Z,90.30
2017-10-26T21:42:36.709Z,90.10
2017-10-26T21:45:03.177Z,90.00
2017-10-26T21:47:29.621Z,89.30
2017-10-26T21:49:56.074Z,89.00
2017-10-26T21:52:22.535Z,88.60
2017-10-26T21:54:48.986Z,88.30
2017-10-26T21:57:15.550Z,88.00
2017-10-26T21:59:42.021Z,87.30
2017-10-26T22:02:08.511Z,87.00
2017-10-26T22:04:35.129Z,86.60
2017-10-26T22:07:01.663Z,86.70
2017-10-26T22:09:28.130Z,86.70
2017-10-26T22:11:54.581Z,86.40
2017-10-26T22:14:21.780Z,86.70
2017-10-26T22:16:48.296Z,86.60
2017-10-26T22:19:15.482Z,86.90
2017-10-26T22:21:41.931Z,86.10
2017-10-26T22:24:08.393Z,86.50
2017-10-26T22:26:35.565Z,86.20
2017-10-26T22:29:02.000Z,86.20
2017-10-26T22:31:28.477Z,86.10
2017-10-26T22:33:54.928Z,86.20
2017-10-26T22:36:21.329Z,86.00
2017-10-26T22:38:47.778Z,85.60
2017-10-26T22:41:14.209Z,85.40
2017-10-26T22:43:40.658Z,85.20
2017-10-26T22:46:07.158Z,84.80
2017-10-26T22:48:33.648Z,85.00
2017-10-26T22:51:00.830Z,84.40
2017-10-26T22:53:27.309Z,84.20
2017-10-26T22:55:53.763Z,84.50
2017-10-26T22:58:20.245Z,84.00
2017-10-26T23:00:46.778Z,83.50
2017-10-26T23:03:13.951Z,83.10
2017-10-26T23:05:40.430Z,83.20
2017-10-26T23:08:06.897Z,83.10
2017-10-26T23:10:33.337Z,83.20
2017-10-26T23:12:59.819Z,83.10
2017-10-26T23:15:26.307Z,83.30
2017-10-26T23:17:52.758Z,83.40
2017-10-26T23:20:19.178Z,83.00
2017-10-26T23:22:45.605Z,82.90
2017-10-26T23:25:12.061Z,82.60
2017-10-26T23:27:38.475Z,82.60
2017-10-26T23:30:04.910Z,82.70
2017-10-26T23:32:32.166Z,83.00
2017-10-26T23:34:58.608Z,82.80
2017-10-26T23:37:25.041Z,82.90
2017-10-26T23:39:51.455Z,83.00
2017-10-26T23:42:17.907Z,83.20
2017-10-26T23:44:44.322Z,83.40
2017-10-26T23:47:10.737Z,83.90
2017-10-26T23:49:37.211Z,83.80
2017-10-26T23:52:03.619Z,84.10
2017-10-26T23:54:30.089Z,84.00
2017-10-26T23:56:57.251Z,83.80
2017-10-26T23:59:23.690Z,83.80
